sensor_id;sensor_type;location;lat;lon;timestamp;pressure;altitude;pressure_sealevel;temperature;humidity
38022;BME280;23832;43.216;27.946;2022-09-03T00:01:04;100403.75;;;27.50;100.00
38022;BME280;23832;43.216;27.946;2022-09-03T00:03:15;100395.91;;;27.48;100.00
38022;BME280;23832;43.216;27.946;2022-09-03T00:05:23;100372.66;;;27.47;100.00
38022;BME280;23832;43.216;27.946;2022-09-03T00:07:31;100370.25;;;27.46;100.00
38022;BME280;23832;43.216;27.946;2022-09-03T00:09:42;100368.63;;;27.44;100.00
38022;BME280;23832;43.216;27.946;2022-09-03T00:11:51;100364.63;;;27.42;100.00
38022;BME280;23832;43.216;27.946;2022-09-03T00:13:59;100363.56;;;27.38;100.00
38022;BME280;23832;43.216;27.946;2022-09-03T00:16:07;100364.72;;;27.32;100.00
38022;BME280;23832;43.216;27.946;2022-09-03T00:18:13;100367.97;;;27.34;100.00
38022;BME280;23832;43.216;27.946;2022-09-03T00:20:21;100364.47;;;27.33;100.00
38022;BME280;23832;43.216;27.946;2022-09-03T00:22:27;100363.13;;;27.31;100.00
38022;BME280;23832;43.216;27.946;2022-09-03T00:24:34;100354.19;;;27.30;100.00
38022;BME280;23832;43.216;27.946;2022-09-03T00:26:40;100357.84;;;27.21;100.00
38022;BME280;23832;43.216;27.946;2022-09-03T00:28:48;100354.84;;;27.22;100.00
38022;BME280;23832;43.216;27.946;2022-09-03T00:31:02;100360.03;;;27.19;100.00
38022;BME280;23832;43.216;27.946;2022-09-03T00:33:09;100367.13;;;27.14;100.00
38022;BME280;23832;43.216;27.946;2022-09-03T00:35:16;100368.78;;;27.10;100.00
38022;BME280;23832;43.216;27.946;2022-09-03T00:37:21;100375.59;;;27.08;100.00
38022;BME280;23832;43.216;27.946;2022-09-03T00:39:25;100384.28;;;27.05;100.00
38022;BME280;23832;43.216;27.946;2022-09-03T00:41:33;100389.97;;;27.03;100.00
38022;BME280;23832;43.216;27.946;2022-09-03T00:43:49;100405.66;;;27.01;100.00
38022;BME280;23832;43.216;27.946;2022-09-03T00:46:02;100410.59;;;26.94;100.00
38022;BME280;23832;43.216;27.946;2022-09-03T00:48:13;100420.91;;;26.92;100.00
38022;BME280;23832;43.216;27.946;2022-09-03T00:50:27;100429.31;;;26.91;100.00
38022;BME280;23832;43.216;27.946;2022-09-03T00:52:42;100443.13;;;26.89;100.00
38022;BME280;23832;43.216;27.946;2022-09-03T00:54:53;100440.44;;;26.89;100.00
38022;BME280;23832;43.216;27.946;2022-09-03T00:57:06;100440.44;;;26.89;100.00
38022;BME280;23832;43.216;27.946;2022-09-03T00:59:21;100439.63;;;26.88;100.00
38022;BME280;23832;43.216;27.946;2022-09-03T01:01:35;100442.63;;;26.87;100.00
38022;BME280;23832;43.216;27.946;2022-09-03T01:03:48;100444.50;;;26.86;100.00
38022;BME280;23832;43.216;27.946;2022-09-03T01:06:12;100438.84;;;26.83;100.00
38022;BME280;23832;43.216;27.946;2022-09-03T01:08:30;100437.03;;;26.78;100.00
38022;BME280;23832;43.216;27.946;2022-09-03T01:10:43;100433.47;;;26.78;100.00
38022;BME280;23832;43.216;27.946;2022-09-03T01:12:51;100428.06;;;26.78;100.00
38022;BME280;23832;43.216;27.946;2022-09-03T01:14:58;100422.88;;;26.57;100.00
38022;BME280;23832;43.216;27.946;2022-09-03T01:17:12;100426.06;;;26.65;100.00
38022;BME280;23832;43.216;27.946;2022-09-03T01:19:34;100418.44;;;26.67;100.00
38022;BME280;23832;43.216;27.946;2022-09-03T01:21:49;100423.34;;;26.65;100.00
38022;BME280;23832;43.216;27.946;2022-09-03T01:26:57;100434.53;;;26.53;100.00
38022;BME280;23832;43.216;27.946;2022-09-03T01:29:11;100423.44;;;26.54;100.00
38022;BME280;23832;43.216;27.946;2022-09-03T01:31:24;100415.34;;;26.54;100.00
38022;BME280;23832;43.216;27.946;2022-09-03T01:33:36;100419.94;;;26.54;100.00
38022;BME280;23832;43.216;27.946;2022-09-03T01:35:45;100410.72;;;26.55;100.00
38022;BME280;23832;43.216;27.946;2022-09-03T01:38:00;100418.31;;;26.53;100.00
38022;BME280;23832;43.216;27.946;2022-09-03T01:40:13;100421.56;;;26.50;100.00
38022;BME280;23832;43.216;27.946;2022-09-03T01:42:23;100415.91;;;26.51;100.00
38022;BME280;23832;43.216;27.946;2022-09-03T01:44:38;100422.94;;;26.52;100.00
38022;BME280;23832;43.216;27.946;2022-09-03T01:46:45;100411.34;;;26.47;100.00
38022;BME280;23832;43.216;27.946;2022-09-03T01:48:52;100410.03;;;26.44;100.00
38022;BME280;23832;43.216;27.946;2022-09-03T01:51:07;100402.47;;;26.41;100.00
38022;BME280;23832;43.216;27.946;2022-09-03T01:53:20;100407.91;;;26.36;100.00
38022;BME280;23832;43.216;27.946;2022-09-03T01:55:31;100398.22;;;26.30;100.00
38022;BME280;23832;43.216;27.946;2022-09-03T01:57:42;100387.41;;;26.30;100.00
38022;BME280;23832;43.216;27.946;2022-09-03T01:59:52;100380.97;;;26.26;100.00
38022;BME280;23832;43.216;27.946;2022-09-03T02:02:02;100380.19;;;26.20;100.00
38022;BME280;23832;43.216;27.946;2022-09-03T02:04:14;100370.75;;;26.18;100.00
38022;BME280;23832;43.216;27.946;2022-09-03T02:06:18;100371.38;;;26.10;100.00
38022;BME280;23832;43.216;27.946;2022-09-03T02:08:23;100364.09;;;26.05;100.00
38022;BME280;23832;43.216;27.946;2022-09-03T02:10:27;100336.28;;;25.60;100.00
38022;BME280;23832;43.216;27.946;2022-09-03T02:12:33;100378.44;;;26.00;100.00
38022;BME280;23832;43.216;27.946;2022-09-03T02:14:37;100387.38;;;25.96;100.00
38022;BME280;23832;43.216;27.946;2022-09-03T02:16:41;100390.38;;;25.94;100.00
38022;BME280;23832;43.216;27.946;2022-09-03T02:18:47;100394.44;;;25.92;100.00
38022;BME280;23832;43.216;27.946;2022-09-03T02:20:52;100393.13;;;25.89;100.00
38022;BME280;23832;43.216;27.946;2022-09-03T02:22:56;100398.53;;;25.89;100.00
38022;BME280;23832;43.216;27.946;2022-09-03T02:24:58;100403.13;;;25.89;100.00
38022;BME280;23832;43.216;27.946;2022-09-03T02:27:00;100417.44;;;25.84;100.00
38022;BME280;23832;43.216;27.946;2022-09-03T02:29:03;100415.84;;;25.83;100.00
38022;BME280;23832;43.216;27.946;2022-09-03T02:31:05;100418.31;;;25.74;100.00
38022;BME280;23832;43.216;27.946;2022-09-03T02:33:08;100435.59;;;25.73;100.00
38022;BME280;23832;43.216;27.946;2022-09-03T02:35:11;100441.78;;;25.69;100.00
38022;BME280;23832;43.216;27.946;2022-09-03T02:37:14;100438.31;;;25.63;100.00
38022;BME280;23832;43.216;27.946;2022-09-03T02:39:16;100436.72;;;25.62;100.00
38022;BME280;23832;43.216;27.946;2022-09-03T02:41:18;100449.94;;;25.59;100.00
38022;BME280;23832;43.216;27.946;2022-09-03T02:43:23;100437.53;;;25.58;100.00
38022;BME280;23832;43.216;27.946;2022-09-03T02:45:28;100448.91;;;25.55;100.00
38022;BME280;23832;43.216;27.946;2022-09-03T02:47:32;100443.22;;;25.51;100.00
38022;BME280;23832;43.216;27.946;2022-09-03T02:49:38;100442.97;;;25.47;100.00
38022;BME280;23832;43.216;27.946;2022-09-03T02:51:42;100443.53;;;25.44;100.00
38022;BME280;23832;43.216;27.946;2022-09-03T02:53:44;100452.72;;;25.43;100.00
38022;BME280;23832;43.216;27.946;2022-09-03T02:55:46;100449.47;;;25.46;100.00
38022;BME280;23832;43.216;27.946;2022-09-03T02:57:48;100441.94;;;25.43;100.00
38022;BME280;23832;43.216;27.946;2022-09-03T02:59:50;100428.44;;;25.38;100.00
38022;BME280;23832;43.216;27.946;2022-09-03T03:01:52;100426.31;;;25.35;100.00
38022;BME280;23832;43.216;27.946;2022-09-03T03:03:54;100426.31;;;25.30;100.00
38022;BME280;23832;43.216;27.946;2022-09-03T03:06:00;100425.78;;;25.23;100.00
38022;BME280;23832;43.216;27.946;2022-09-03T03:08:03;100422.84;;;25.19;100.00
38022;BME280;23832;43.216;27.946;2022-09-03T03:10:07;100421.28;;;25.08;100.00
38022;BME280;23832;43.216;27.946;2022-09-03T03:12:09;100414.25;;;25.07;100.00
38022;BME280;23832;43.216;27.946;2022-09-03T03:14:11;100413.44;;;25.07;100.00
38022;BME280;23832;43.216;27.946;2022-09-03T03:16:14;100413.44;;;25.07;100.00
38022;BME280;23832;43.216;27.946;2022-09-03T03:18:16;100415.31;;;25.01;100.00
38022;BME280;23832;43.216;27.946;2022-09-03T03:20:19;100420.47;;;25.03;100.00
38022;BME280;23832;43.216;27.946;2022-09-03T03:22:23;100435.28;;;24.95;100.00
38022;BME280;23832;43.216;27.946;2022-09-03T03:24:25;100419.69;;;24.77;100.00
38022;BME280;23832;43.216;27.946;2022-09-03T03:26:27;100431.25;;;24.87;100.00
38022;BME280;23832;43.216;27.946;2022-09-03T03:28:29;100416.72;;;24.73;100.00
38022;BME280;23832;43.216;27.946;2022-09-03T03:30:36;100413.22;;;24.73;100.00
38022;BME280;23832;43.216;27.946;2022-09-03T03:32:39;100431.25;;;24.77;100.00
38022;BME280;23832;43.216;27.946;2022-09-03T03:34:41;100428.03;;;24.75;100.00
38022;BME280;23832;43.216;27.946;2022-09-03T03:36:43;100432.34;;;24.71;100.00
38022;BME280;23832;43.216;27.946;2022-09-03T03:38:46;100437.72;;;24.71;100.00
38022;BME280;23832;43.216;27.946;2022-09-03T03:40:48;100442.59;;;24.69;100.00
38022;BME280;23832;43.216;27.946;2022-09-03T03:42:50;100453.91;;;24.71;100.00
38022;BME280;23832;43.216;27.946;2022-09-03T03:44:52;100451.22;;;24.71;100.00
38022;BME280;23832;43.216;27.946;2022-09-03T03:46:55;100447.19;;;24.69;100.00
38022;BME280;23832;43.216;27.946;2022-09-03T03:48:57;100454.19;;;24.75;100.00
38022;BME280;23832;43.216;27.946;2022-09-03T03:51:00;100457.69;;;24.80;100.00
38022;BME280;23832;43.216;27.946;2022-09-03T03:53:03;100457.16;;;24.83;100.00
38022;BME280;23832;43.216;27.946;2022-09-03T03:55:07;100454.44;;;24.88;100.00
38022;BME280;23832;43.216;27.946;2022-09-03T03:57:09;100456.06;;;24.89;100.00
38022;BME280;23832;43.216;27.946;2022-09-03T03:59:11;100458.22;;;24.92;100.00
38022;BME280;23832;43.216;27.946;2022-09-03T04:01:15;100459.81;;;24.94;100.00
38022;BME280;23832;43.216;27.946;2022-09-03T04:03:17;100451.47;;;24.95;100.00
38022;BME280;23832;43.216;27.946;2022-09-03T04:05:19;100447.44;;;24.87;100.00
38022;BME280;23832;43.216;27.946;2022-09-03T04:07:21;100463.06;;;24.96;100.00
38022;BME280;23832;43.216;27.946;2022-09-03T04:09:23;100462.81;;;24.92;100.00
38022;BME280;23832;43.216;27.946;2022-09-03T04:11:26;100468.72;;;24.94;100.00
38022;BME280;23832;43.216;27.946;2022-09-03T04:13:29;100461.75;;;24.83;100.00
38022;BME280;23832;43.216;27.946;2022-09-03T04:15:31;100483.28;;;24.93;100.00
38022;BME280;23832;43.216;27.946;2022-09-03T04:17:33;100493.00;;;24.94;100.00
38022;BME280;23832;43.216;27.946;2022-09-03T04:19:35;100495.44;;;24.90;100.00
38022;BME280;23832;43.216;27.946;2022-09-03T04:21:38;100514.03;;;24.92;100.00
38022;BME280;23832;43.216;27.946;2022-09-03T04:23:42;100516.47;;;24.94;100.00
38022;BME280;23832;43.216;27.946;2022-09-03T04:25:51;100518.06;;;24.95;100.00
38022;BME280;23832;43.216;27.946;2022-09-03T04:27:54;100525.88;;;24.96;100.00
38022;BME280;23832;43.216;27.946;2022-09-03T04:29:56;100525.59;;;24.98;100.00
38022;BME280;23832;43.216;27.946;2022-09-03T04:31:58;100534.50;;;24.98;100.00
38022;BME280;23832;43.216;27.946;2022-09-03T04:34:17;100531.00;;;24.98;100.00
38022;BME280;23832;43.216;27.946;2022-09-03T04:36:20;100526.44;;;25.03;100.00
38022;BME280;23832;43.216;27.946;2022-09-03T04:38:23;100527.78;;;25.06;100.00
38022;BME280;23832;43.216;27.946;2022-09-03T04:40:25;100522.97;;;25.08;100.00
38022;BME280;23832;43.216;27.946;2022-09-03T04:42:27;100519.72;;;25.11;100.00
38022;BME280;23832;43.216;27.946;2022-09-03T04:44:30;100524.53;;;25.14;100.00
38022;BME280;23832;43.216;27.946;2022-09-03T04:46:32;100521.31;;;25.12;100.00
38022;BME280;23832;43.216;27.946;2022-09-03T04:48:35;100519.16;;;25.14;100.00
38022;BME280;23832;43.216;27.946;2022-09-03T04:50:37;100522.66;;;25.14;100.00
38022;BME280;23832;43.216;27.946;2022-09-03T04:52:39;100527.78;;;25.16;100.00
38022;BME280;23832;43.216;27.946;2022-09-03T04:54:41;100519.16;;;25.19;100.00
38022;BME280;23832;43.216;27.946;2022-09-03T04:56:43;100518.59;;;25.22;100.00
38022;BME280;23832;43.216;27.946;2022-09-03T04:58:46;100519.13;;;25.29;100.00
38022;BME280;23832;43.216;27.946;2022-09-03T05:00:49;100516.44;;;25.34;100.00
38022;BME280;23832;43.216;27.946;2022-09-03T05:02:51;100525.88;;;25.37;100.00
38022;BME280;23832;43.216;27.946;2022-09-03T05:04:53;100520.72;;;25.40;100.00
38022;BME280;23832;43.216;27.946;2022-09-03T05:06:56;100527.19;;;25.44;100.00
38022;BME280;23832;43.216;27.946;2022-09-03T05:08:58;100527.69;;;25.52;100.00
38022;BME280;23832;43.216;27.946;2022-09-03T05:11:00;100523.38;;;25.56;100.00
38022;BME280;23832;43.216;27.946;2022-09-03T05:13:04;100531.44;;;25.61;100.00
38022;BME280;23832;43.216;27.946;2022-09-03T05:15:07;100537.41;;;25.63;100.00
38022;BME280;23832;43.216;27.946;2022-09-03T05:17:10;100542.25;;;25.66;100.00
38022;BME280;23832;43.216;27.946;2022-09-03T05:19:12;100549.53;;;25.65;100.00
38022;BME280;23832;43.216;27.946;2022-09-03T05:21:18;100546.84;;;25.60;100.00
38022;BME280;23832;43.216;27.946;2022-09-03T05:23:20;100549.00;;;25.58;100.00
38022;BME280;23832;43.216;27.946;2022-09-03T05:25:23;100551.19;;;25.56;100.00
38022;BME280;23832;43.216;27.946;2022-09-03T05:27:25;100554.41;;;25.58;100.00
38022;BME280;23832;43.216;27.946;2022-09-03T05:29:26;100556.81;;;25.60;100.00
38022;BME280;23832;43.216;27.946;2022-09-03T05:31:29;100547.13;;;25.59;100.00
38022;BME280;23832;43.216;27.946;2022-09-03T05:33:34;100543.34;;;25.60;100.00
38022;BME280;23832;43.216;27.946;2022-09-03T05:35:36;100543.09;;;25.61;100.00
38022;BME280;23832;43.216;27.946;2022-09-03T05:37:39;100551.16;;;25.66;100.00
38022;BME280;23832;43.216;27.946;2022-09-03T05:39:41;100550.06;;;25.67;100.00
38022;BME280;23832;43.216;27.946;2022-09-03T05:41:43;100559.28;;;25.71;100.00
38022;BME280;23832;43.216;27.946;2022-09-03T05:43:46;100568.44;;;25.75;100.00
38022;BME280;23832;43.216;27.946;2022-09-03T05:45:56;100564.91;;;25.75;100.00
38022;BME280;23832;43.216;27.946;2022-09-03T05:47:59;100559.25;;;25.77;100.00
38022;BME280;23832;43.216;27.946;2022-09-03T05:50:04;100561.94;;;25.82;100.00
38022;BME280;23832;43.216;27.946;2022-09-03T05:52:06;100556.25;;;25.83;100.00
38022;BME280;23832;43.216;27.946;2022-09-03T05:54:09;100555.41;;;25.88;100.00
38022;BME280;23832;43.216;27.946;2022-09-03T05:56:13;100551.38;;;25.85;100.00
38022;BME280;23832;43.216;27.946;2022-09-03T05:58:17;100550.00;;;25.88;100.00
38022;BME280;23832;43.216;27.946;2022-09-03T06:00:19;100554.59;;;25.87;100.00
38022;BME280;23832;43.216;27.946;2022-09-03T06:02:21;100552.47;;;25.89;100.00
38022;BME280;23832;43.216;27.946;2022-09-03T06:04:23;100564.06;;;25.90;100.00
38022;BME280;23832;43.216;27.946;2022-09-03T06:06:28;100550.28;;;25.91;100.00
38022;BME280;23832;43.216;27.946;2022-09-03T06:08:31;100551.09;;;25.92;100.00
38022;BME280;23832;43.216;27.946;2022-09-03T06:10:32;100559.72;;;25.99;100.00
38022;BME280;23832;43.216;27.946;2022-09-03T06:12:34;100553.22;;;26.00;100.00
38022;BME280;23832;43.216;27.946;2022-09-03T06:14:36;100555.63;;;26.01;100.00
38022;BME280;23832;43.216;27.946;2022-09-03T06:16:39;100561.56;;;26.03;100.00
38022;BME280;23832;43.216;27.946;2022-09-03T06:18:41;100571.84;;;26.07;100.00
38022;BME280;23832;43.216;27.946;2022-09-03T06:20:53;100568.03;;;26.08;100.00
38022;BME280;23832;43.216;27.946;2022-09-03T06:22:56;100567.50;;;26.06;100.00
38022;BME280;23832;43.216;27.946;2022-09-03T06:24:58;100563.75;;;26.01;100.00
38022;BME280;23832;43.216;27.946;2022-09-03T06:27:00;100565.63;;;26.01;100.00
38022;BME280;23832;43.216;27.946;2022-09-03T06:29:02;100573.19;;;26.04;100.00
38022;BME280;23832;43.216;27.946;2022-09-03T06:31:06;100569.66;;;26.03;100.00
38022;BME280;23832;43.216;27.946;2022-09-03T06:33:08;100566.97;;;26.03;100.00
38022;BME280;23832;43.216;27.946;2022-09-03T06:35:10;100566.66;;;26.10;100.00
38022;BME280;23832;43.216;27.946;2022-09-03T06:37:12;100556.63;;;26.21;100.00
38022;BME280;23832;43.216;27.946;2022-09-03T06:39:15;100564.66;;;26.31;100.00
38022;BME280;23832;43.216;27.946;2022-09-03T06:41:19;100572.72;;;26.46;100.00
38022;BME280;23832;43.216;27.946;2022-09-03T06:43:24;100575.84;;;26.64;100.00
38022;BME280;23832;43.216;27.946;2022-09-03T06:45:27;100582.47;;;26.81;100.00
38022;BME280;23832;43.216;27.946;2022-09-03T06:47:29;100578.00;;;27.01;100.00
38022;BME280;23832;43.216;27.946;2022-09-03T06:49:32;100577.09;;;27.15;100.00
38022;BME280;23832;43.216;27.946;2022-09-03T06:51:35;100579.41;;;27.27;100.00
38022;BME280;23832;43.216;27.946;2022-09-03T06:53:38;100585.22;;;27.44;100.00
38022;BME280;23832;43.216;27.946;2022-09-03T06:55:42;100573.63;;;27.68;100.00
38022;BME280;23832;43.216;27.946;2022-09-03T06:57:44;100576.38;;;27.87;100.00
38022;BME280;23832;43.216;27.946;2022-09-03T06:59:46;100573.72;;;28.06;100.00
38022;BME280;23832;43.216;27.946;2022-09-03T07:01:48;100574.22;;;28.26;100.00
38022;BME280;23832;43.216;27.946;2022-09-03T07:03:52;100577.56;;;28.42;100.00
38022;BME280;23832;43.216;27.946;2022-09-03T07:05:59;100580.28;;;28.61;100.00
38022;BME280;23832;43.216;27.946;2022-09-03T07:08:02;100584.38;;;28.77;100.00
38022;BME280;23832;43.216;27.946;2022-09-03T07:10:05;100589.19;;;28.99;100.00
38022;BME280;23832;43.216;27.946;2022-09-03T07:12:09;100591.34;;;29.16;100.00
38022;BME280;23832;43.216;27.946;2022-09-03T07:14:12;100597.28;;;29.18;100.00
38022;BME280;23832;43.216;27.946;2022-09-03T07:16:16;100598.22;;;29.27;100.00
38022;BME280;23832;43.216;27.946;2022-09-03T07:18:19;100611.78;;;29.27;99.98
38022;BME280;23832;43.216;27.946;2022-09-03T07:20:20;100605.84;;;29.25;100.00
38022;BME280;23832;43.216;27.946;2022-09-03T07:22:22;100605.84;;;29.25;99.12
38022;BME280;23832;43.216;27.946;2022-09-03T07:24:24;100599.00;;;29.28;100.00
38022;BME280;23832;43.216;27.946;2022-09-03T07:26:28;100610.47;;;29.25;99.50
38022;BME280;23832;43.216;27.946;2022-09-03T07:28:34;100605.06;;;29.25;99.23
38022;BME280;23832;43.216;27.946;2022-09-03T07:30:36;100605.66;;;29.22;99.96
38022;BME280;23832;43.216;27.946;2022-09-03T07:32:38;100621.03;;;29.26;99.86
38022;BME280;23832;43.216;27.946;2022-09-03T07:34:40;100611.72;;;29.32;97.88
38022;BME280;23832;43.216;27.946;2022-09-03T07:36:44;100611.91;;;29.36;96.17
38022;BME280;23832;43.216;27.946;2022-09-03T07:38:49;100619.38;;;29.44;100.00
38022;BME280;23832;43.216;27.946;2022-09-03T07:40:56;100615.25;;;29.47;97.89
38022;BME280;23832;43.216;27.946;2022-09-03T07:42:59;100620.63;;;29.65;90.88
38022;BME280;23832;43.216;27.946;2022-09-03T07:45:06;100626.28;;;29.69;88.02
38022;BME280;23832;43.216;27.946;2022-09-03T07:47:10;100622.06;;;29.77;89.82
38022;BME280;23832;43.216;27.946;2022-09-03T07:49:12;100622.88;;;29.77;85.38
38022;BME280;23832;43.216;27.946;2022-09-03T07:51:14;100640.88;;;29.87;86.81
38022;BME280;23832;43.216;27.946;2022-09-03T07:53:17;100631.81;;;30.05;87.77
38022;BME280;23832;43.216;27.946;2022-09-03T07:55:20;100634.53;;;30.19;86.39
38022;BME280;23832;43.216;27.946;2022-09-03T07:57:22;100636.13;;;30.34;83.57
38022;BME280;23832;43.216;27.946;2022-09-03T07:59:24;100629.66;;;30.43;79.20
38022;BME280;23832;43.216;27.946;2022-09-03T08:01:28;100627.16;;;30.47;77.34
38022;BME280;23832;43.216;27.946;2022-09-03T08:03:31;100619.19;;;30.50;75.55
38022;BME280;23832;43.216;27.946;2022-09-03T08:05:33;100617.75;;;30.67;76.56
38022;BME280;23832;43.216;27.946;2022-09-03T08:07:35;100615.91;;;30.76;75.07
38022;BME280;23832;43.216;27.946;2022-09-03T08:09:38;100648.25;;;31.00;73.24
38022;BME280;23832;43.216;27.946;2022-09-03T08:11:42;100618.88;;;31.33;72.55
38022;BME280;23832;43.216;27.946;2022-09-03T08:13:45;100591.00;;;31.36;69.83
38022;BME280;23832;43.216;27.946;2022-09-03T08:15:53;100610.31;;;31.88;63.28
38022;BME280;23832;43.216;27.946;2022-09-03T08:18:01;100616.13;;;31.95;63.90
38022;BME280;23832;43.216;27.946;2022-09-03T08:20:03;100602.66;;;31.99;63.31
38022;BME280;23832;43.216;27.946;2022-09-03T08:22:05;100600.28;;;32.14;62.75
38022;BME280;23832;43.216;27.946;2022-09-03T08:24:07;100558.56;;;32.05;61.52
38022;BME280;23832;43.216;27.946;2022-09-03T08:26:14;100597.94;;;32.56;59.98
38022;BME280;23832;43.216;27.946;2022-09-03T08:28:16;100605.16;;;32.69;58.05
38022;BME280;23832;43.216;27.946;2022-09-03T08:30:18;100599.09;;;32.90;57.96
38022;BME280;23832;43.216;27.946;2022-09-03T08:32:20;100606.59;;;33.10;57.42
38022;BME280;23832;43.216;27.946;2022-09-03T08:34:24;100607.50;;;33.40;55.94
38022;BME280;23832;43.216;27.946;2022-09-03T08:36:27;100609.84;;;33.59;55.73
38022;BME280;23832;43.216;27.946;2022-09-03T08:38:30;100566.97;;;33.42;55.92
38022;BME280;23832;43.216;27.946;2022-09-03T08:40:36;100614.13;;;34.07;54.24
38022;BME280;23832;43.216;27.946;2022-09-03T08:42:46;100604.09;;;33.90;50.84
38022;BME280;23832;43.216;27.946;2022-09-03T08:44:53;100613.75;;;33.79;51.53
38022;BME280;23832;43.216;27.946;2022-09-03T08:46:59;100610.19;;;33.87;52.21
38022;BME280;23832;43.216;27.946;2022-09-03T08:49:04;100618.19;;;34.01;52.65
38022;BME280;23832;43.216;27.946;2022-09-03T08:51:10;100610.16;;;34.25;51.87
38022;BME280;23832;43.216;27.946;2022-09-03T08:53:18;100611.50;;;34.40;50.63
38022;BME280;23832;43.216;27.946;2022-09-03T08:55:25;100625.13;;;34.49;50.47
38022;BME280;23832;43.216;27.946;2022-09-03T08:57:31;100635.19;;;34.36;49.46
38022;BME280;23832;43.216;27.946;2022-09-03T08:59:38;100627.69;;;34.54;49.95
38022;BME280;23832;43.216;27.946;2022-09-03T09:01:46;100625.22;;;34.61;49.24
38022;BME280;23832;43.216;27.946;2022-09-03T09:04:01;100633.09;;;34.62;48.51
38022;BME280;23832;43.216;27.946;2022-09-03T09:06:13;100629.22;;;34.42;48.32
38022;BME280;23832;43.216;27.946;2022-09-03T09:08:25;100635.34;;;34.10;47.70
38022;BME280;23832;43.216;27.946;2022-09-03T09:10:33;100629.88;;;33.72;48.65
38022;BME280;23832;43.216;27.946;2022-09-03T09:12:40;100633.09;;;33.18;48.33
38022;BME280;23832;43.216;27.946;2022-09-03T09:14:49;100639.06;;;33.03;50.33
38022;BME280;23832;43.216;27.946;2022-09-03T09:17:05;100640.00;;;33.07;50.80
38022;BME280;23832;43.216;27.946;2022-09-03T09:19:23;100635.47;;;33.28;51.49
38022;BME280;23832;43.216;27.946;2022-09-03T09:21:36;100634.25;;;33.64;52.01
38022;BME280;23832;43.216;27.946;2022-09-03T09:23:46;100644.06;;;34.03;51.15
38022;BME280;23832;43.216;27.946;2022-09-03T09:25:52;100636.31;;;34.35;49.91
38022;BME280;23832;43.216;27.946;2022-09-03T09:27:59;100640.50;;;34.62;49.90
38022;BME280;23832;43.216;27.946;2022-09-03T09:30:04;100649.94;;;34.85;49.21
38022;BME280;23832;43.216;27.946;2022-09-03T09:32:08;100647.44;;;35.13;48.51
38022;BME280;23832;43.216;27.946;2022-09-03T09:34:11;100640.78;;;35.35;47.96
38022;BME280;23832;43.216;27.946;2022-09-03T09:36:15;100650.09;;;35.55;47.06
38022;BME280;23832;43.216;27.946;2022-09-03T09:38:28;100649.09;;;35.72;45.37
38022;BME280;23832;43.216;27.946;2022-09-03T09:40:32;100651.63;;;35.77;45.85
38022;BME280;23832;43.216;27.946;2022-09-03T09:42:35;100642.00;;;35.83;45.60
38022;BME280;23832;43.216;27.946;2022-09-03T09:44:39;100657.09;;;36.01;46.01
38022;BME280;23832;43.216;27.946;2022-09-03T09:46:42;100662.81;;;36.08;45.19
38022;BME280;23832;43.216;27.946;2022-09-03T09:48:48;100653.75;;;36.20;44.08
38022;BME280;23832;43.216;27.946;2022-09-03T09:51:03;100640.66;;;36.14;43.22
38022;BME280;23832;43.216;27.946;2022-09-03T09:53:08;100671.25;;;36.28;44.31
38022;BME280;23832;43.216;27.946;2022-09-03T09:55:18;100665.78;;;36.40;43.93
38022;BME280;23832;43.216;27.946;2022-09-03T09:57:24;100656.97;;;36.34;43.08
38022;BME280;23832;43.216;27.946;2022-09-03T09:59:26;100654.00;;;36.39;43.79
38022;BME280;23832;43.216;27.946;2022-09-03T10:01:28;100650.22;;;36.44;43.04
38022;BME280;23832;43.216;27.946;2022-09-03T10:03:32;100657.31;;;36.33;42.79
38022;BME280;23832;43.216;27.946;2022-09-03T10:05:36;100654.25;;;36.22;42.48
38022;BME280;23832;43.216;27.946;2022-09-03T10:07:40;100657.34;;;36.08;42.61
38022;BME280;23832;43.216;27.946;2022-09-03T10:09:43;100651.94;;;36.12;42.76
38022;BME280;23832;43.216;27.946;2022-09-03T10:11:48;100653.91;;;36.24;42.82
38022;BME280;23832;43.216;27.946;2022-09-03T10:13:51;100639.91;;;36.29;43.07
38022;BME280;23832;43.216;27.946;2022-09-03T10:15:59;100655.72;;;36.44;42.56
38022;BME280;23832;43.216;27.946;2022-09-03T10:18:08;100667.25;;;36.50;42.03
38022;BME280;23832;43.216;27.946;2022-09-03T10:20:13;100653.19;;;36.39;41.67
38022;BME280;23832;43.216;27.946;2022-09-03T10:22:32;100669.66;;;36.27;41.81
38022;BME280;23832;43.216;27.946;2022-09-03T10:24:48;100683.19;;;36.07;41.02
38022;BME280;23832;43.216;27.946;2022-09-03T10:26:54;100683.75;;;35.89;41.43
38022;BME280;23832;43.216;27.946;2022-09-03T10:28:59;100599.63;;;35.11;41.52
38022;BME280;23832;43.216;27.946;2022-09-03T10:31:35;100685.38;;;35.57;41.70
38022;BME280;23832;43.216;27.946;2022-09-03T10:33:46;100703.44;;;35.58;42.43
38022;BME280;23832;43.216;27.946;2022-09-03T10:35:52;100704.91;;;35.55;42.25
38022;BME280;23832;43.216;27.946;2022-09-03T10:38:05;100706.63;;;35.47;41.66
38022;BME280;23832;43.216;27.946;2022-09-03T10:40:18;100703.66;;;35.19;41.38
38022;BME280;23832;43.216;27.946;2022-09-03T10:42:40;100697.44;;;34.68;41.87
38022;BME280;23832;43.216;27.946;2022-09-03T10:44:59;100696.63;;;34.68;42.39